Time;durP1;ratioP1;P1;durP2;ratioP2;P2;SDS_P1;SDS_P2;PMS_P1;PMS_P2;Temp;Humidity;BMP_temperature;BMP_pressure;BME280_temperature;BME280_humidity;BME280_pressure;Samples;Min_cycle;Max_cycle;Signal;HPM_P1;HPM_P2
2023/07/07 00:02:24;;;;;;;11.45;4.40;;;;;;;26.00;39.63;98294.69;4394483;32;20109;-79
2023/07/07 00:04:51;;;;;;;14.20;3.85;;;;;;;25.74;40.74;98294.72;4394512;32;20691;-79
2023/07/07 00:07:19;;;;;;;11.50;4.37;;;;;;;25.54;40.34;98296.69;4394214;32;20109;-79
2023/07/07 00:09:47;;;;;;;11.12;3.70;;;;;;;25.61;40.61;98298.53;4394222;32;20094;-79
2023/07/07 00:12:16;;;;;;;9.70;3.90;;;;;;;25.44;40.30;98301.22;4394870;32;20094;-79
2023/07/07 00:14:43;;;;;;;13.93;4.30;;;;;;;25.41;40.15;98299.69;4385487;32;20102;-79
2023/07/07 00:17:11;;;;;;;13.90;4.87;;;;;;;25.70;40.63;98296.81;4399422;32;20097;-79
2023/07/07 00:19:38;;;;;;;13.35;5.50;;;;;;;25.39;40.84;98297.22;4399226;32;20094;-79
2023/07/07 00:22:06;;;;;;;13.52;4.90;;;;;;;25.03;41.33;98293.75;4398984;32;20100;-79
2023/07/07 00:24:36;;;;;;;13.90;4.87;;;;;;;25.28;41.18;98300.09;4399367;32;20102;-79
2023/07/07 00:27:03;;;;;;;12.07;4.43;;;;;;;25.70;40.69;98290.69;4399151;32;20098;-79
2023/07/07 00:29:30;;;;;;;10.77;4.18;;;;;;;25.42;40.77;98304.03;4398751;32;20086;-79
2023/07/07 00:31:58;;;;;;;13.73;4.82;;;;;;;25.09;41.43;98294.97;4399137;32;20116;-79
2023/07/07 00:34:26;;;;;;;13.77;4.62;;;;;;;24.67;41.96;98295.53;4399183;32;20113;-79
2023/07/07 00:36:53;;;;;;;10.95;4.20;;;;;;;24.95;41.65;98293.66;4398916;32;20441;-79
2023/07/07 00:39:20;;;;;;;10.05;3.78;;;;;;;24.94;41.41;98297.28;4399112;32;20097;-79
2023/07/07 00:41:48;;;;;;;10.68;4.28;;;;;;;23.97;42.54;98301.34;4399038;32;20082;-79
2023/07/07 00:44:14;;;;;;;10.18;3.62;;;;;;;24.60;41.50;98294.44;4398751;32;20103;-79
2023/07/07 00:46:41;;;;;;;9.80;3.97;;;;;;;25.34;40.67;98296.84;4399016;32;20109;-78
2023/07/07 00:49:12;;;;;;;11.85;4.00;;;;;;;25.68;40.78;98298.75;4398508;32;20109;-79
2023/07/07 00:51:47;;;;;;;9.93;3.83;;;;;;;24.44;41.66;98287.16;4398707;32;20121;-79
2023/07/07 00:54:21;;;;;;;9.85;4.00;;;;;;;25.86;40.31;98290.81;4385357;32;20165;-79
2023/07/07 00:56:51;;;;;;;9.45;3.90;;;;;;;25.57;41.01;98299.00;4398625;32;20102;-79
2023/07/07 00:59:20;;;;;;;10.75;3.85;;;;;;;25.70;40.79;98293.34;4398845;32;20087;-79
2023/07/07 01:01:51;;;;;;;10.07;3.85;;;;;;;25.85;40.62;98287.34;4385080;32;20082;-79
2023/07/07 01:04:18;;;;;;;10.82;4.37;;;;;;;25.16;42.13;98293.37;4398386;32;20550;-79
2023/07/07 01:06:50;;;;;;;12.50;4.10;;;;;;;24.84;43.12;98282.47;4398854;32;20149;-79
2023/07/07 01:09:17;;;;;;;10.63;3.87;;;;;;;25.75;40.70;98285.78;4398707;32;20087;-79
2023/07/07 01:11:46;;;;;;;9.48;3.67;;;;;;;25.09;40.83;98285.25;4397942;32;20094;-79
2023/07/07 01:14:21;;;;;;;10.23;3.87;;;;;;;25.20;40.77;98289.47;4384882;32;20118;-79
2023/07/07 01:17:12;;;;;;;11.98;3.50;;;;;;;24.99;42.09;98289.75;4398564;32;20754;-79
2023/07/07 01:20:00;;;;;;;13.62;4.35;;;;;;;24.93;42.64;98292.97;4398510;32;20086;-79
2023/07/07 01:22:33;;;;;;;10.18;3.90;;;;;;;25.35;42.15;98287.94;4384746;32;20141;-80
2023/07/07 01:25:31;;;;;;;10.85;4.25;;;;;;;24.95;42.91;98291.00;4395550;32;20161;-80
2023/07/07 01:28:07;;;;;;;;;;;;;;;25.18;42.28;98294.06;4396046;32;20106;-79
2023/07/07 01:30:47;;;;;;;10.02;4.10;;;;;;;24.76;42.63;98288.50;4382198;32;20378;-80
2023/07/07 01:33:17;;;;;;;10.73;3.40;;;;;;;25.38;41.57;98292.09;4395487;32;20094;-80
2023/07/07 01:35:44;;;;;;;9.70;3.65;;;;;;;25.50;41.62;98293.50;4382123;32;20425;-80
2023/07/07 01:38:31;;;;;;;9.23;3.92;;;;;;;25.65;41.75;98291.13;4395378;32;20155;-80
2023/07/07 01:41:17;;;;;;;9.57;3.87;;;;;;;25.58;40.52;98301.50;4395716;32;20115;-80
2023/07/07 01:43:50;;;;;;;9.63;4.10;;;;;;;24.73;43.57;98291.44;4395618;32;20159;-80
2023/07/07 01:46:32;;;;;;;9.98;3.45;;;;;;;24.65;43.99;98307.19;4395322;32;20235;-80
2023/07/07 01:48:58;;;;;;;9.65;3.20;;;;;;;24.62;44.13;98303.03;4381910;32;20232;-80
2023/07/07 01:51:29;;;;;;;9.38;3.58;;;;;;;24.27;45.00;98301.09;4395435;32;20082;-80
2023/07/07 01:53:58;;;;;;;9.70;3.80;;;;;;;24.69;44.52;98298.84;4381794;32;20090;-80
2023/07/07 01:56:26;;;;;;;10.13;3.55;;;;;;;25.20;43.14;98294.75;4369543;32;20114;-80
2023/07/07 01:58:53;;;;;;;10.23;3.87;;;;;;;25.13;42.64;98296.34;4381947;32;20126;-80
2023/07/07 02:01:20;;;;;;;7.70;3.45;;;;;;;24.49;44.28;98303.38;4395070;32;20094;-80
2023/07/07 02:03:47;;;;;;;10.63;3.58;;;;;;;25.14;42.50;98310.38;4395488;32;20117;-80
2023/07/07 02:06:14;;;;;;;9.73;3.42;;;;;;;24.97;42.48;98304.06;4395190;32;20098;-80
2023/07/07 02:08:41;;;;;;;13.30;3.90;;;;;;;24.59;43.53;98305.97;4395425;32;20145;-80
2023/07/07 02:11:08;;;;;;;9.23;4.03;;;;;;;25.16;42.49;98298.66;4381327;32;20098;-80
2023/07/07 02:13:36;;;;;;;11.57;4.18;;;;;;;25.17;42.26;98296.84;4394949;32;20089;-80
2023/07/07 02:16:03;;;;;;;10.45;3.72;;;;;;;25.28;42.66;98307.19;4395359;32;20102;-80
2023/07/07 02:18:30;;;;;;;9.05;3.37;;;;;;;24.97;43.90;98302.25;4395418;32;20090;-78
2023/07/07 02:20:57;;;;;;;9.05;3.50;;;;;;;24.49;44.99;98305.19;4395049;32;20101;-79
2023/07/07 02:23:25;;;;;;;12.00;3.47;;;;;;;24.45;45.09;98312.56;4395375;32;20105;-78
2023/07/07 02:25:52;;;;;;;11.27;3.85;;;;;;;25.13;42.99;98309.53;4395302;32;20510;-78
2023/07/07 02:28:19;;;;;;;11.10;4.10;;;;;;;25.30;42.58;98310.50;4394957;32;20162;-78
2023/07/07 02:30:46;;;;;;;7.15;2.97;;;;;;;24.89;43.50;98318.03;4394806;32;20144;-78
2023/07/07 02:33:12;;;;;;;8.40;3.35;;;;;;;25.25;42.63;98318.88;4395265;32;20078;-78
2023/07/07 02:35:39;;;;;;;12.13;3.75;;;;;;;25.48;41.83;98319.25;4394805;32;20110;-78
2023/07/07 02:38:06;;;;;;;9.85;3.62;;;;;;;25.24;41.77;98322.50;4395281;32;20449;-78
2023/07/07 02:40:34;;;;;;;10.07;3.87;;;;;;;25.15;41.65;98326.06;4395063;32;20098;-78
2023/07/07 02:43:01;;;;;;;10.95;3.75;;;;;;;25.09;41.52;98326.63;4394992;32;20086;-78
2023/07/07 02:45:28;;;;;;;7.87;3.22;;;;;;;25.19;41.15;98329.22;4394997;32;20118;-78
2023/07/07 02:47:55;;;;;;;12.13;3.70;;;;;;;24.57;42.05;98331.69;4395280;32;20433;-78
2023/07/07 02:50:22;;;;;;;11.63;3.83;;;;;;;24.23;43.23;98340.09;4394595;32;20388;-78
2023/07/07 02:52:49;;;;;;;10.45;3.80;;;;;;;24.69;42.43;98334.94;4395188;32;20111;-78
2023/07/07 02:55:16;;;;;;;9.88;3.33;;;;;;;24.78;42.19;98337.53;4395217;32;20117;-78
2023/07/07 02:57:43;;;;;;;11.52;3.22;;;;;;;24.50;43.15;98338.50;4394831;32;20136;-78
2023/07/07 03:00:13;;;;;;;8.00;3.28;;;;;;;25.31;41.77;98347.34;4394751;32;20085;-78
2023/07/07 03:02:40;;;;;;;9.93;3.58;;;;;;;25.76;41.04;98345.59;4394850;32;20109;-78
2023/07/07 03:05:07;;;;;;;9.25;3.80;;;;;;;24.77;43.28;98348.22;4395073;32;20095;-78
2023/07/07 03:07:34;;;;;;;10.02;4.40;;;;;;;24.81;43.71;98346.97;4395031;32;20170;-78
2023/07/07 03:10:01;;;;;;;9.95;3.78;;;;;;;24.93;43.58;98351.03;4394466;32;20428;-78
2023/07/07 03:12:28;;;;;;;9.18;3.55;;;;;;;25.06;43.54;98356.81;4394995;32;20081;-78
2023/07/07 03:14:55;;;;;;;8.27;3.40;;;;;;;24.99;43.83;98349.59;4394986;32;20596;-78
2023/07/07 03:17:22;;;;;;;9.00;3.67;;;;;;;24.79;44.17;98354.19;4394510;32;20110;-78
2023/07/07 03:19:49;;;;;;;10.55;3.75;;;;;;;24.63;44.44;98357.47;4394966;32;20083;-78
2023/07/07 03:22:16;;;;;;;11.38;3.80;;;;;;;24.50;43.64;98356.97;4394817;32;20145;-78
2023/07/07 03:24:43;;;;;;;10.07;3.60;;;;;;;24.89;43.55;98359.41;4394586;32;20116;-78
2023/07/07 03:27:09;;;;;;;9.82;3.40;;;;;;;23.97;45.30;98360.16;4394996;32;20103;-78
2023/07/07 03:29:36;;;;;;;10.38;3.70;;;;;;;23.94;45.42;98363.09;4394696;32;20159;-78
2023/07/07 03:32:04;;;;;;;9.18;3.40;;;;;;;23.83;45.75;98358.81;4394275;32;20090;-79
2023/07/07 03:34:30;;;;;;;9.00;3.50;;;;;;;23.12;47.41;98349.50;4394770;32;20091;-78
2023/07/07 03:36:57;;;;;;;11.68;3.70;;;;;;;22.17;50.07;98357.78;4394876;32;20087;-78
2023/07/07 03:39:24;;;;;;;9.35;3.72;;;;;;;22.12;50.43;98345.03;4394488;32;20579;-78
2023/07/07 03:41:51;;;;;;;11.40;3.55;;;;;;;22.42;49.63;98346.81;4394646;32;20182;-78
2023/07/07 03:44:18;;;;;;;9.75;3.62;;;;;;;22.13;49.99;98351.12;4394724;32;20103;-79
2023/07/07 03:46:45;;;;;;;10.27;3.40;;;;;;;22.19;50.27;98354.03;4393843;32;20134;-78
2023/07/07 03:49:12;;;;;;;9.07;3.75;;;;;;;22.65;49.62;98357.97;4394274;32;20140;-78
2023/07/07 03:51:39;;;;;;;10.77;3.87;;;;;;;23.45;47.45;98362.28;4394229;32;20086;-78
2023/07/07 03:54:06;;;;;;;9.25;3.67;;;;;;;23.73;46.61;98368.53;4394557;32;20168;-78
2023/07/07 03:56:33;;;;;;;11.15;3.20;;;;;;;24.05;45.54;98360.28;4394721;32;20094;-78
2023/07/07 03:59:00;;;;;;;10.18;3.80;;;;;;;24.16;45.25;98369.84;4394148;32;20090;-78
2023/07/07 04:01:27;;;;;;;11.75;3.62;;;;;;;23.91;45.99;98368.63;4394322;32;20108;-78
2023/07/07 04:03:55;;;;;;;9.68;3.67;;;;;;;24.44;44.61;98365.44;4394611;32;20106;-78
2023/07/07 04:06:22;;;;;;;11.05;3.65;;;;;;;24.61;44.50;98367.34;4394306;32;20094;-78
2023/07/07 04:08:49;;;;;;;8.65;3.35;;;;;;;24.88;43.93;98368.28;4394479;32;20087;-79
2023/07/07 04:11:19;;;;;;;8.65;3.50;;;;;;;24.71;43.38;98360.19;4394039;32;20460;-78
2023/07/07 04:13:48;;;;;;;9.90;3.55;;;;;;;24.64;43.98;98368.84;4394486;32;20460;-81
2023/07/07 04:16:21;;;;;;;9.35;3.60;;;;;;;23.94;45.11;98369.19;4395822;32;20113;-82
2023/07/07 04:18:50;;;;;;;10.48;4.32;;;;;;;23.44;46.36;98360.59;4394356;32;20104;-82
2023/07/07 04:21:20;;;;;;;9.73;3.60;;;;;;;23.33;47.06;98368.66;4368269;32;20113;-78
2023/07/07 04:23:51;;;;;;;8.88;3.87;;;;;;;23.73;46.47;98372.97;4394409;32;20099;-78
2023/07/07 04:26:19;;;;;;;10.35;3.95;;;;;;;24.12;45.15;98377.19;4394483;32;20110;-78
2023/07/07 04:28:46;;;;;;;9.88;3.45;;;;;;;24.93;43.52;98377.44;4393865;32;20428;-78
2023/07/07 04:31:13;;;;;;;7.72;3.30;;;;;;;24.85;43.52;98376.50;4394078;32;20150;-78
2023/07/07 04:33:40;;;;;;;10.10;3.60;;;;;;;25.08;43.44;98385.69;4393730;32;20091;-78
2023/07/07 04:36:10;;;;;;;7.97;3.45;;;;;;;24.99;43.66;98386.56;4394101;32;20087;-78
2023/07/07 04:38:37;;;;;;;9.60;3.72;;;;;;;25.29;42.96;98388.88;4393947;32;20101;-78
2023/07/07 04:41:09;;;;;;;9.02;3.22;;;;;;;;;;4393730;32;20108;-78
2023/07/07 04:43:38;;;;;;;11.27;3.55;;;;;;;25.68;41.96;98389.44;4394104;32;20106;-78
2023/07/07 04:46:07;;;;;;;12.55;3.85;;;;;;;26.12;40.97;98384.16;4394000;32;20138;-78
2023/07/07 04:48:34;;;;;;;10.35;3.50;;;;;;;26.29;40.65;98385.09;4393398;32;20153;-78
2023/07/07 04:51:03;;;;;;;11.77;3.92;;;;;;;27.28;38.61;98381.88;4393649;32;20143;-78
2023/07/07 04:53:30;;;;;;;7.72;3.28;;;;;;;27.62;37.67;98387.88;4393831;32;20098;-78
2023/07/07 04:56:04;;;;;;;10.43;4.18;;;;;;;27.38;38.12;98393.16;4393518;32;20156;-78
2023/07/07 04:58:31;;;;;;;10.40;3.53;;;;;;;27.54;37.91;98393.19;4393838;32;20093;-78
2023/07/07 05:01:15;;;;;;;9.18;3.75;;;;;;;27.04;38.95;98396.75;4395233;32;20128;-78
2023/07/07 05:03:43;;;;;;;8.40;3.40;;;;;;;26.79;38.89;98387.84;4395486;32;20114;-78
2023/07/07 05:06:11;;;;;;;11.60;4.12;;;;;;;27.65;38.09;98394.72;4395802;32;20160;-78
2023/07/07 05:08:41;;;;;;;10.38;3.60;;;;;;;27.03;38.75;98392.44;4395662;32;20082;-78
2023/07/07 05:11:13;;;;;;;9.55;3.58;;;;;;;27.73;36.98;98394.69;4395437;32;20092;-78
2023/07/07 05:13:40;;;;;;;12.65;4.20;;;;;;;27.70;37.39;98397.69;4395937;32;20110;-78
2023/07/07 05:16:12;;;;;;;8.95;3.20;;;;;;;27.83;37.43;98395.38;4381950;32;20162;-78
2023/07/07 05:18:40;;;;;;;9.45;3.60;;;;;;;29.05;35.80;98403.06;4395585;32;20500;-78
2023/07/07 05:21:08;;;;;;;9.48;3.60;;;;;;;29.56;34.47;98405.25;4395788;32;20098;-78
2023/07/07 05:23:36;;;;;;;9.55;3.90;;;;;;;29.69;34.25;98396.69;4381923;32;20167;-78
2023/07/07 05:26:03;;;;;;;8.63;3.25;;;;;;;31.49;32.20;98407.03;4395708;32;20514;-78
2023/07/07 05:28:30;;;;;;;9.20;3.97;;;;;;;31.12;31.68;98408.03;4395754;32;20105;-78
2023/07/07 05:30:58;;;;;;;9.50;3.70;;;;;;;31.72;31.33;98415.66;4381877;32;20149;-78
2023/07/07 05:33:27;;;;;;;8.73;3.58;;;;;;;31.32;31.22;98411.75;4395809;32;20099;-78
2023/07/07 05:36:00;;;;;;;10.93;3.72;;;;;;;31.01;31.69;98410.16;4395596;32;20170;-78
2023/07/07 05:38:28;;;;;;;11.40;3.97;;;;;;;30.92;32.06;98418.44;4395423;32;20165;-77
2023/07/07 05:40:55;;;;;;;11.25;3.85;;;;;;;31.81;30.40;98403.06;4381915;32;20137;-78
2023/07/07 05:43:24;;;;;;;11.30;3.90;;;;;;;31.33;31.44;98405.41;4395271;32;20091;-78
2023/07/07 05:45:59;;;;;;;8.68;3.95;;;;;;;30.13;32.56;98416.28;4394803;32;20182;-78
2023/07/07 05:48:27;;;;;;;10.07;4.40;;;;;;;29.12;33.73;98412.97;4395680;32;20533;-77
2023/07/07 05:50:59;;;;;;;10.00;4.03;;;;;;;28.16;35.17;98414.72;4393992;32;20139;-78
2023/07/07 05:53:27;;;;;;;10.25;3.90;;;;;;;27.17;37.01;98411.34;4395512;32;20098;-77
2023/07/07 05:56:03;;;;;;;10.15;3.87;;;;;;;28.52;35.41;98420.50;4396065;32;20133;-77
2023/07/07 05:58:30;;;;;;;11.25;3.67;;;;;;;28.02;36.11;98414.59;4395876;32;20090;-77
2023/07/07 06:00:57;;;;;;;9.98;4.03;;;;;;;27.95;36.62;98417.06;4395168;32;20082;-77
2023/07/07 06:03:25;;;;;;;10.25;3.97;;;;;;;28.80;34.86;98418.22;4381787;32;20166;-78
2023/07/07 06:05:52;;;;;;;9.75;3.83;;;;;;;28.33;35.16;98418.22;4395558;32;20464;-78
2023/07/07 06:08:19;;;;;;;14.05;4.25;;;;;;;28.34;35.40;98427.00;4396939;32;20095;-77
2023/07/07 06:10:48;;;;;;;9.57;4.00;;;;;;;28.67;34.34;98419.78;4394532;32;20073;-77
2023/07/07 06:13:17;;;;;;;10.40;4.25;;;;;;;28.63;35.49;98424.63;4395049;32;20127;-77
2023/07/07 06:15:45;;;;;;;9.10;3.97;;;;;;;29.10;35.06;98439.72;4395321;32;20095;-77
2023/07/07 06:18:12;;;;;;;11.70;4.25;;;;;;;28.89;35.09;98429.69;4395302;32;20501;-77
2023/07/07 06:20:39;;;;;;;10.40;3.95;;;;;;;28.91;35.19;98440.97;4394334;32;20086;-76
2023/07/07 06:23:08;;;;;;;10.73;4.07;;;;;;;29.51;33.95;98434.22;4395366;32;20115;-77
2023/07/07 06:25:35;;;;;;;11.00;4.05;;;;;;;28.96;35.70;98448.44;4395348;32;20099;-77
2023/07/07 06:28:02;;;;;;;9.75;4.00;;;;;;;28.04;35.42;98439.94;4394989;32;20098;-77
2023/07/07 06:30:29;;;;;;;11.40;4.05;;;;;;;27.01;36.03;98438.53;4395039;32;20078;-76
2023/07/07 06:32:58;;;;;;;9.77;4.00;;;;;;;27.41;36.74;98442.34;4394954;32;20145;-76
2023/07/07 06:35:26;;;;;;;10.05;3.85;;;;;;;26.71;37.71;98442.56;4395052;32;20164;-77
2023/07/07 06:37:53;;;;;;;10.15;3.97;;;;;;;26.76;38.40;98440.28;4396624;32;20094;-77
2023/07/07 06:40:20;;;;;;;11.65;4.28;;;;;;;27.12;36.64;98438.31;4399257;32;20054;-77
2023/07/07 06:42:50;;;;;;;10.70;4.10;;;;;;;26.95;36.74;98437.38;4397711;32;20089;-77
2023/07/07 06:45:17;;;;;;;10.30;4.00;;;;;;;26.44;38.35;98440.94;4384617;32;20205;-78
2023/07/07 06:47:44;;;;;;;10.88;4.30;;;;;;;25.93;38.34;98439.88;4397522;32;20502;-79
2023/07/07 06:50:17;;;;;;;9.40;4.10;;;;;;;26.65;38.08;98444.03;4381238;32;20164;-80
2023/07/07 06:52:44;;;;;;;11.30;4.15;;;;;;;26.78;38.17;98441.75;4381372;32;20514;-80
2023/07/07 06:55:12;;;;;;;10.00;3.97;;;;;;;27.08;37.28;98439.59;4381279;32;20174;-79
2023/07/07 06:57:38;;;;;;;10.20;4.12;;;;;;;26.43;37.71;98445.38;4381476;32;20098;-79
2023/07/07 07:00:06;;;;;;;9.73;4.00;;;;;;;27.73;35.01;98447.72;4394919;32;20074;-80
2023/07/07 07:02:33;;;;;;;10.93;4.20;;;;;;;28.10;35.09;98444.59;4394830;32;20445;-79
2023/07/07 07:05:00;;;;;;;12.25;4.07;;;;;;;28.46;35.44;98453.03;4395003;32;20106;-80
2023/07/07 07:07:28;;;;;;;9.45;3.85;;;;;;;28.31;34.56;98452.06;4394746;32;20100;-79
2023/07/07 07:09:55;;;;;;;10.15;4.10;;;;;;;28.97;33.39;98458.88;4368982;32;20142;-79
2023/07/07 07:12:22;;;;;;;10.57;4.18;;;;;;;28.04;34.61;98453.19;4384322;32;20142;-78
2023/07/07 07:14:49;;;;;;;9.60;4.07;;;;;;;27.24;36.69;98468.81;4403871;32;20072;-78
2023/07/07 07:17:15;;;;;;;10.50;3.90;;;;;;;28.41;35.48;98470.47;4408918;32;20156;-78
2023/07/07 07:19:48;;;;;;;10.38;4.20;;;;;;;28.41;34.77;98471.28;4406635;32;20055;-78
2023/07/07 07:22:15;;;;;;;8.98;4.00;;;;;;;28.12;35.09;98471.78;4394495;32;20134;-79
2023/07/07 07:24:42;;;;;;;10.30;4.05;;;;;;;28.77;33.19;98477.00;4408660;32;20076;-79
2023/07/07 07:27:09;;;;;;;9.85;3.90;;;;;;;28.27;32.90;98471.91;4406022;32;20854;-79
2023/07/07 07:29:51;;;;;;;9.32;3.80;;;;;;;28.55;31.87;98472.41;4393557;32;20122;-79
2023/07/07 07:32:18;;;;;;;8.82;3.72;;;;;;;28.25;31.71;98466.78;4402265;32;20161;-79
2023/07/07 07:34:45;;;;;;;9.82;4.00;;;;;;;27.65;33.48;98479.53;4403827;32;20103;-78
2023/07/07 07:37:14;;;;;;;9.13;3.80;;;;;;;27.72;33.53;98475.22;4405453;32;20081;-78
2023/07/07 07:39:54;;;;;;;10.80;4.37;;;;;;;27.81;33.35;98476.91;4406653;32;20058;-79
2023/07/07 07:42:21;;;;;;;9.25;3.72;;;;;;;27.17;33.86;98478.38;4405257;32;20083;-79
2023/07/07 07:44:48;;;;;;;10.13;3.85;;;;;;;27.49;34.03;98474.16;4398270;32;20467;-79
2023/07/07 07:47:15;;;;;;;11.15;3.97;;;;;;;27.14;34.90;98486.66;4396840;32;20496;-78
2023/07/07 07:49:45;;;;;;;10.30;3.53;;;;;;;27.42;34.98;98489.03;4395552;32;20159;-78
2023/07/07 07:52:11;;;;;;;11.10;3.55;;;;;;;27.71;33.77;98486.00;4398601;32;20114;-78
2023/07/07 07:54:38;;;;;;;9.18;3.58;;;;;;;27.58;34.19;98489.09;4402692;32;20102;-78
2023/07/07 07:57:06;;;;;;;8.93;3.47;;;;;;;27.23;34.52;98483.06;4390934;32;20108;-79
2023/07/07 07:59:39;;;;;;;9.95;4.03;;;;;;;26.97;35.40;98484.87;4399877;32;20046;-79
2023/07/07 08:02:10;;;;;;;10.73;4.05;;;;;;;28.10;33.76;98486.22;4398653;32;20138;-79
2023/07/07 08:04:37;;;;;;;10.00;3.80;;;;;;;28.63;34.39;98492.81;4395677;32;20143;-79
2023/07/07 08:07:04;;;;;;;9.05;3.85;;;;;;;29.92;33.14;98487.94;4396719;32;20149;-79
2023/07/07 08:09:31;;;;;;;9.98;4.10;;;;;;;30.89;32.53;98493.41;4396783;32;20139;-79
2023/07/07 08:12:00;;;;;;;12.02;3.70;;;;;;;30.90;31.65;98492.41;4395457;32;20107;-79
2023/07/07 08:14:31;;;;;;;8.43;3.22;;;;;;;29.77;30.59;98495.00;4395503;32;20106;-79
2023/07/07 08:17:04;;;;;;;9.48;4.03;;;;;;;29.01;31.18;98497.38;4397296;32;20414;-78
2023/07/07 08:19:38;;;;;;;9.57;4.10;;;;;;;29.04;30.73;98504.19;4407102;32;20054;-77
2023/07/07 08:22:07;;;;;;;9.43;3.83;;;;;;;29.44;32.50;98507.66;4407064;32;20126;-78
2023/07/07 08:24:43;;;;;;;9.10;3.80;;;;;;;30.71;31.82;98507.09;4404647;32;20454;-78
2023/07/07 08:27:10;;;;;;;11.15;4.43;;;;;;;31.53;30.41;98513.13;4407689;32;20059;-79
2023/07/07 08:29:42;;;;;;;11.73;4.25;;;;;;;31.76;29.71;98515.66;4395792;32;20058;-80
2023/07/07 08:32:12;;;;;;;8.80;3.87;;;;;;;32.61;30.26;98524.66;4407938;32;20107;-79
2023/07/07 08:34:39;;;;;;;10.05;3.75;;;;;;;32.86;28.27;98533.06;4409283;32;20102;-79
2023/07/07 08:37:21;;;;;;;9.80;3.97;;;;;;;32.98;28.32;98531.53;4408616;32;20116;-79
2023/07/07 08:39:49;;;;;;;10.07;3.83;;;;;;;32.89;27.96;98522.00;4408325;32;20086;-79
2023/07/07 08:42:28;;;;;;;9.05;4.10;;;;;;;32.20;29.80;98526.16;4403209;32;20163;-79
2023/07/07 08:44:58;;;;;;;8.85;3.35;;;;;;;31.41;26.75;98522.63;4387289;32;20113;-79
2023/07/07 08:47:34;;;;;;;8.55;3.45;;;;;;;29.35;29.56;98521.00;4396626;32;20095;-79
2023/07/07 08:50:09;;;;;;;7.77;2.97;;;;;;;28.34;29.62;98509.28;4382424;32;20083;-79
2023/07/07 08:53:31;;;;;;;8.60;3.30;;;;;;;27.43;30.44;98510.06;4383868;32;20191;-79
2023/07/07 08:56:07;;;;;;;8.38;2.60;;;;;;;27.04;32.19;98517.72;4395827;32;20153;-78
2023/07/07 08:58:49;;;;;;;8.13;3.12;;;;;;;26.33;32.50;98502.81;4382112;32;20165;-78
2023/07/07 09:01:28;;;;;;;8.63;3.17;;;;;;;26.77;32.15;98516.88;4381497;32;20497;-78
2023/07/07 09:04:33;;;;;;;9.32;3.10;;;;;;;27.16;31.59;98521.75;4382217;32;20106;-79
2023/07/07 09:07:39;;;;;;;9.90;3.25;;;;;;;27.30;31.14;98521.13;4385822;32;20456;-79
2023/07/07 09:10:48;;;;;;;9.25;3.17;;;;;;;27.00;31.30;98518.97;4362852;32;20122;-78
2023/07/07 09:13:20;;;;;;;9.63;3.62;;;;;;;27.84;30.11;98515.50;4348325;33;20298;-79
2023/07/07 09:16:01;;;;;;;9.50;3.55;;;;;;;27.20;30.71;98517.78;4348232;33;20212;-79
2023/07/07 09:18:33;;;;;;;7.00;2.17;;;;;;;27.65;31.60;98516.66;4365239;32;20106;-79
2023/07/07 09:21:02;;;;;;;9.15;3.25;;;;;;;27.08;31.36;98525.19;4381916;32;20091;-79
2023/07/07 09:23:34;;;;;;;8.45;3.30;;;;;;;27.19;31.25;98526.72;4381781;32;20141;-78
2023/07/07 09:26:16;;;;;;;8.52;3.33;;;;;;;27.40;32.29;98528.97;4395721;32;20098;-79
2023/07/07 09:28:46;;;;;;;7.07;2.58;;;;;;;28.41;29.65;98523.53;4381731;32;20166;-79
2023/07/07 09:31:24;;;;;;;8.30;2.80;;;;;;;27.96;30.76;98512.38;4381922;32;20129;-79
2023/07/07 09:33:52;;;;;;;8.55;3.15;;;;;;;27.87;32.18;98513.38;4395576;32;20432;-79
2023/07/07 09:36:24;;;;;;;11.10;3.30;;;;;;;28.06;31.75;98528.13;4394995;32;20102;-79
2023/07/07 09:39:25;;;;;;;7.62;3.35;;;;;;;28.74;29.62;98527.81;4395224;32;20186;-79
2023/07/07 09:42:15;;;;;;;8.25;3.45;;;;;;;28.86;28.32;98530.09;4395300;32;20102;-79
2023/07/07 09:45:13;;;;;;;7.90;3.10;;;;;;;28.96;27.73;98526.28;4381736;32;20436;-79
2023/07/07 09:48:05;;;;;;;9.27;3.53;;;;;;;28.09;29.50;98527.00;4395897;32;20178;-79
2023/07/07 09:50:42;;;;;;;8.38;2.65;;;;;;;27.29;30.44;98522.13;4381793;32;20110;-79
2023/07/07 09:53:26;;;;;;;9.00;3.35;;;;;;;27.57;30.76;98529.84;4382408;32;20124;-82
2023/07/07 09:56:04;;;;;;;8.57;3.10;;;;;;;27.94;30.86;98518.84;4383217;32;20090;-83
2023/07/07 09:58:36;;;;;;;9.95;3.33;;;;;;;28.85;29.41;98534.59;4381305;32;20114;-84
2023/07/07 10:01:04;;;;;;;10.40;3.15;;;;;;;29.08;29.81;98526.75;4381627;32;20174;-82
2023/07/07 10:03:44;;;;;;;10.48;3.78;;;;;;;29.57;29.54;98524.75;4369072;32;20106;-80
2023/07/07 10:06:32;;;;;;;8.52;2.53;;;;;;;29.95;27.56;98520.31;4395452;32;20467;-80
2023/07/07 10:09:00;;;;;;;7.47;3.25;;;;;;;30.01;26.91;98521.47;4382104;32;20165;-80
2023/07/07 10:11:34;;;;;;;8.52;2.80;;;;;;;29.98;26.56;98529.78;4394794;32;20160;-80
2023/07/07 10:14:21;;;;;;;6.68;2.80;;;;;;;29.37;27.68;98534.94;4384122;32;20082;-80
2023/07/07 10:17:14;;;;;;;7.43;2.67;;;;;;;29.52;26.75;98537.72;4381861;32;20097;-80
2023/07/07 10:19:43;;;;;;;6.85;2.65;;;;;;;29.64;26.66;98520.34;4381373;32;20114;-80
2023/07/07 10:22:12;;;;;;;7.65;2.92;;;;;;;30.09;26.51;98524.06;4395408;32;20107;-80
2023/07/07 10:24:39;;;;;;;9.85;3.20;;;;;;;29.43;27.67;98532.56;4394966;32;20094;-80
2023/07/07 10:27:13;;;;;;;6.95;3.00;;;;;;;29.81;27.26;98541.56;4395199;32;20124;-80
2023/07/07 10:29:42;;;;;;;7.28;2.65;;;;;;;30.16;28.23;98534.84;4381977;32;20168;-80
2023/07/07 10:32:15;;;;;;;7.28;3.05;;;;;;;30.20;27.14;98541.47;4394991;32;20103;-78
2023/07/07 10:34:47;;;;;;;7.72;3.20;;;;;;;30.57;27.67;98535.31;4381783;32;20109;-80
2023/07/07 10:37:19;;;;;;;9.05;3.08;;;;;;;29.93;28.36;98534.81;4395186;32;20104;-80
2023/07/07 10:39:54;;;;;;;7.12;2.92;;;;;;;30.07;28.14;98534.06;4395230;32;20138;-80
2023/07/07 10:42:23;;;;;;;11.20;3.58;;;;;;;30.72;27.78;98525.53;4395231;32;20116;-80
2023/07/07 10:44:55;;;;;;;9.05;3.40;;;;;;;30.93;26.34;98538.13;4395222;32;20086;-80
2023/07/07 10:47:26;;;;;;;9.27;3.37;;;;;;;30.15;27.28;98531.34;4394853;32;20112;-80
2023/07/07 10:49:53;;;;;;;5.50;2.35;;;;;;;30.26;27.25;98542.59;4381502;32;20177;-80
2023/07/07 10:52:55;;;;;;;8.30;2.60;;;;;;;28.77;28.14;98535.44;4395051;32;20342;-80
2023/07/07 10:55:35;;;;;;;7.93;3.40;;;;;;;28.14;29.07;98536.09;4395203;32;20105;-80
2023/07/07 10:58:19;;;;;;;8.68;3.35;;;;;;;28.13;28.29;98537.09;4381443;32;20082;-79
2023/07/07 11:01:10;;;;;;;8.43;3.20;;;;;;;28.95;27.79;98535.25;4380978;32;20094;-80
2023/07/07 11:03:59;;;;;;;9.90;3.53;;;;;;;29.42;28.62;98536.25;4395189;32;20445;-80
2023/07/07 11:06:44;;;;;;;9.10;3.35;;;;;;;28.50;30.43;98527.84;4395108;32;20425;-80
2023/07/07 11:09:29;;;;;;;9.93;3.72;;;;;;;28.28;29.96;98528.50;4394997;32;20134;-80
2023/07/07 11:12:11;;;;;;;10.65;4.00;;;;;;;29.71;29.46;98517.84;4394696;32;20125;-81
2023/07/07 11:14:50;;;;;;;8.45;3.28;;;;;;;30.36;29.03;98533.34;4394586;32;20150;-81
2023/07/07 11:17:54;;;;;;;6.78;3.00;;;;;;;31.13;28.55;98529.59;4394572;32;20094;-81
2023/07/07 11:20:32;;;;;;;10.18;3.50;;;;;;;29.89;28.37;98523.72;4372817;32;20155;-81
2023/07/07 11:23:02;;;;;;;7.30;3.37;;;;;;;30.97;28.04;98523.47;4394524;32;20151;-82
2023/07/07 11:26:00;;;;;;;10.13;3.95;;;;;;;31.34;26.53;98519.88;4394320;32;20173;-81
2023/07/07 11:28:51;;;;;;;8.13;3.40;;;;;;;30.85;27.44;98516.13;4394329;32;20091;-81
2023/07/07 11:31:44;;;;;;;8.65;3.45;;;;;;;30.43;27.55;98513.00;4394592;32;20117;-81
2023/07/07 11:34:29;;;;;;;9.77;3.58;;;;;;;30.13;27.08;98512.09;4380523;32;20145;-80
2023/07/07 11:37:12;;;;;;;7.85;2.97;;;;;;;30.21;27.15;98522.66;4394782;32;20099;-80
2023/07/07 11:40:24;;;;;;;8.00;2.92;;;;;;;30.08;27.05;98521.59;4394570;32;20104;-80
2023/07/07 11:42:50;;;;;;;9.07;3.47;;;;;;;28.85;27.79;98517.81;4381772;32;20085;-80
2023/07/07 11:45:39;;;;;;;7.78;3.12;;;;;;;29.44;27.30;98511.12;4394632;32;20086;-80
2023/07/07 11:48:33;;;;;;;11.12;3.20;;;;;;;30.08;25.71;98508.28;4381980;32;20121;-81
2023/07/07 11:51:37;;;;;;;6.37;2.60;;;;;;;30.28;26.03;98508.63;4389712;32;20090;-81
2023/07/07 11:54:07;;;;;;;7.65;3.05;;;;;;;30.25;23.57;98512.47;4394153;32;20082;-81
2023/07/07 11:56:51;;;;;;;8.45;3.03;;;;;;;31.00;23.44;98500.94;4394058;32;20457;-82